createdAt,value
2023-01-19T00:02:07.762Z,31.69
2023-01-19T00:12:09.001Z,31.75
2023-01-19T00:22:10.274Z,31.86
2023-01-19T00:32:11.522Z,31.52
2023-01-19T00:42:12.829Z,31.60
2023-01-19T00:52:14.124Z,31.73
2023-01-19T01:02:15.549Z,31.78
2023-01-19T01:22:45.730Z,31.94
2023-01-19T01:32:46.986Z,31.54
2023-01-19T01:42:48.232Z,31.70
2023-01-19T01:53:06.725Z,31.78
2023-01-19T02:03:09.052Z,31.70
2023-01-19T02:13:10.351Z,31.67
2023-01-19T02:23:11.621Z,31.72
2023-01-19T02:33:12.897Z,31.41
2023-01-19T02:43:14.388Z,30.95
2023-01-19T02:53:15.643Z,31.09
2023-01-19T03:03:16.924Z,31.66
2023-01-19T03:13:18.194Z,31.28
2023-01-19T03:23:19.444Z,31.79
2023-01-19T03:33:20.704Z,31.73
2023-01-19T03:43:21.960Z,31.35
2023-01-19T03:53:23.222Z,31.41
2023-01-19T04:03:24.487Z,31.71
2023-01-19T04:13:25.858Z,31.36
2023-01-19T04:23:27.097Z,31.53
2023-01-19T04:33:28.332Z,31.72
2023-01-19T04:43:29.703Z,31.52
2023-01-19T04:53:30.947Z,31.87
2023-01-19T05:03:32.186Z,31.38
2023-01-19T05:13:33.436Z,31.81
2023-01-19T05:23:34.695Z,32.32
2023-01-19T05:33:35.971Z,32.34
2023-01-19T05:43:37.202Z,31.90
2023-01-19T05:53:38.411Z,31.83
2023-01-19T06:03:39.687Z,32.02
2023-01-19T06:13:42.147Z,31.89
2023-01-19T06:23:43.498Z,32.44
2023-01-19T06:33:44.789Z,32.84
2023-01-19T06:43:46.081Z,33.14
2023-01-19T06:53:47.361Z,33.32
2023-01-19T07:03:48.670Z,33.31
2023-01-19T07:13:49.911Z,33.35
2023-01-19T07:23:51.198Z,33.40
2023-01-19T07:33:52.467Z,33.51
2023-01-19T07:43:53.690Z,33.66
2023-01-19T07:53:54.937Z,33.64
2023-01-19T08:03:56.173Z,33.65
2023-01-19T08:13:57.418Z,33.51
2023-01-19T08:23:58.711Z,33.72
2023-01-19T08:34:00.284Z,33.61
2023-01-19T08:44:01.520Z,33.56
2023-01-19T08:54:02.843Z,33.60
2023-01-19T09:04:04.100Z,33.84
2023-01-19T09:14:05.335Z,33.89
2023-01-19T09:24:06.612Z,33.84
2023-01-19T09:34:07.866Z,34.43
2023-01-19T09:44:09.191Z,34.91
2023-01-19T09:54:10.481Z,35.09
2023-01-19T10:04:11.757Z,35.90
2023-01-19T10:14:13.002Z,36.23
2023-01-19T10:24:14.274Z,36.26
2023-01-19T10:34:18.868Z,37.01
2023-01-19T10:44:20.772Z,37.37
2023-01-19T10:54:22.033Z,37.96
2023-01-19T11:04:23.312Z,37.90
2023-01-19T11:14:24.544Z,38.31
2023-01-19T11:24:25.794Z,38.35
2023-01-19T11:34:27.051Z,38.21
2023-01-19T11:44:28.285Z,37.70
2023-01-19T11:54:29.514Z,38.35
2023-01-19T12:04:30.797Z,38.06
2023-01-19T12:14:32.028Z,37.74
2023-01-19T12:24:33.326Z,37.52
2023-01-19T12:34:34.716Z,38.10
2023-01-19T12:44:35.996Z,37.67
2023-01-19T12:54:37.246Z,38.01
2023-01-19T13:04:38.475Z,37.92
2023-01-19T13:14:39.751Z,37.63
2023-01-19T13:24:42.157Z,36.90
2023-01-19T13:34:43.444Z,36.83
2023-01-19T13:44:44.844Z,37.01
2023-01-19T13:54:46.080Z,36.60
2023-01-19T14:04:47.359Z,36.76
2023-01-19T14:14:48.606Z,36.56
2023-01-19T14:24:49.870Z,36.49
2023-01-19T14:34:51.186Z,36.25
2023-01-19T14:44:52.451Z,36.26
2023-01-19T14:54:53.735Z,36.04
2023-01-19T15:04:55.004Z,36.05
2023-01-19T15:14:56.279Z,35.85
2023-01-19T15:24:57.638Z,35.37
2023-01-19T15:34:58.972Z,34.88
2023-01-19T15:45:00.228Z,34.37
2023-01-19T15:55:01.541Z,34.29
2023-01-19T16:05:02.831Z,34.24
2023-01-19T16:15:04.079Z,34.02
2023-01-19T16:25:05.350Z,33.78
2023-01-19T16:35:06.617Z,33.60
2023-01-19T16:45:07.881Z,33.36
2023-01-19T16:55:09.157Z,33.44
2023-01-19T17:05:10.516Z,33.03
2023-01-19T17:15:12.374Z,32.74
2023-01-19T17:25:13.643Z,32.50
2023-01-19T17:35:14.907Z,32.24
2023-01-19T17:45:16.155Z,32.62
2023-01-19T17:55:17.395Z,32.00
2023-01-19T18:05:18.636Z,31.93
2023-01-19T18:15:19.893Z,31.51
2023-01-19T18:25:21.293Z,31.66
2023-01-19T18:35:22.537Z,32.28
2023-01-19T18:45:23.812Z,32.42
2023-01-19T18:55:25.047Z,32.49
2023-01-19T19:05:26.316Z,32.42
2023-01-19T19:15:27.602Z,31.99
2023-01-19T19:25:28.892Z,32.05
2023-01-19T19:35:30.285Z,32.61
2023-01-19T19:45:31.524Z,32.75
2023-01-19T19:55:32.793Z,32.82
2023-01-19T20:05:34.333Z,32.97
2023-01-19T20:15:35.617Z,33.22
2023-01-19T20:25:36.868Z,33.32
2023-01-19T20:35:38.108Z,33.25
2023-01-19T20:45:39.398Z,32.78
2023-01-19T20:55:40.932Z,32.50
2023-01-19T21:05:42.218Z,32.28
2023-01-19T21:15:43.493Z,32.38
2023-01-19T21:25:44.761Z,32.48
2023-01-19T21:35:46.016Z,32.58
2023-01-19T21:45:47.315Z,32.70
2023-01-19T21:55:48.759Z,32.60
2023-01-19T22:05:50.057Z,32.46
2023-01-19T22:15:51.279Z,31.88
2023-01-19T22:25:52.623Z,32.27
2023-01-19T22:35:53.895Z,31.76
2023-01-19T22:45:55.243Z,32.01
2023-01-19T22:55:56.488Z,32.33
2023-01-19T23:05:57.855Z,32.09
2023-01-19T23:15:59.172Z,31.58
2023-01-19T23:26:00.423Z,32.00
2023-01-19T23:36:01.692Z,32.00
2023-01-19T23:46:03.162Z,31.88
2023-01-19T23:56:04.415Z,32.03
